createdAt,value
2018-10-19T13:01:38.383Z,28.40
2018-10-19T13:04:07.888Z,24.73
2018-10-19T13:06:36.924Z,21.90
2018-10-19T13:09:11.248Z,23.83
2018-10-19T13:11:39.365Z,21.80
2018-10-19T13:14:07.730Z,22.53
2018-10-19T13:16:36.203Z,22.05
2018-10-19T13:19:04.707Z,24.07
2018-10-19T13:21:35.682Z,22.40
2018-10-19T13:24:04.520Z,22.33
2018-10-19T13:26:33.035Z,22.43
2018-10-19T13:29:02.465Z,22.42
2018-10-19T13:31:32.207Z,21.63
2018-10-19T13:34:07.121Z,20.80
2018-10-19T13:36:36.860Z,19.43
2018-10-19T13:39:07.873Z,20.50
2018-10-19T13:41:36.973Z,20.30
2018-10-19T13:44:05.592Z,20.50
2018-10-19T13:46:34.047Z,19.95
2018-10-19T13:49:02.617Z,19.47
2018-10-19T13:51:31.893Z,19.53
2018-10-19T13:54:00.878Z,20.90
2018-10-19T13:56:29.938Z,21.87
2018-10-19T13:59:00.427Z,21.87
2018-10-19T14:01:28.647Z,20.10
2018-10-19T14:03:56.868Z,22.00
2018-10-19T14:06:25.090Z,21.40
2018-10-19T14:08:53.367Z,19.07
2018-10-19T14:11:21.663Z,19.20
2018-10-19T14:13:49.941Z,20.90
2018-10-19T14:16:18.150Z,19.77
2018-10-19T14:18:46.375Z,20.50
2018-10-19T14:21:14.646Z,19.10
2018-10-19T14:23:42.833Z,19.10
2018-10-19T14:26:11.084Z,19.80
2018-10-19T14:28:39.476Z,19.23
2018-10-19T14:31:07.918Z,18.53
2018-10-19T14:33:36.330Z,19.37
2018-10-19T14:36:04.828Z,19.80
2018-10-19T14:38:33.605Z,18.60
2018-10-19T14:41:03.607Z,18.93
2018-10-19T14:43:33.292Z,17.70
2018-10-19T14:46:02.276Z,18.87
2018-10-19T14:48:31.815Z,19.67
2018-10-19T14:51:00.970Z,20.03
2018-10-19T14:53:30.453Z,20.60
2018-10-19T14:55:58.705Z,19.27
2018-10-19T14:58:26.932Z,18.73
2018-10-19T15:00:55.314Z,18.65
2018-10-19T15:03:23.565Z,19.30
2018-10-19T15:05:51.894Z,18.53
2018-10-19T15:08:20.139Z,19.60
2018-10-19T15:10:48.775Z,19.33
2018-10-19T15:13:16.869Z,19.15
2018-10-19T15:15:45.172Z,20.77
2018-10-19T15:18:13.456Z,19.83
2018-10-19T15:20:41.665Z,20.07
2018-10-19T15:26:03.392Z,20.13
2018-10-19T15:28:33.047Z,20.52
2018-10-19T15:31:02.515Z,19.43
2018-10-19T15:33:31.882Z,20.53
2018-10-19T15:36:00.936Z,19.77
2018-10-19T15:38:30.006Z,20.13
2018-10-19T15:40:58.267Z,19.50
2018-10-19T15:43:26.494Z,19.07
2018-10-19T15:45:54.754Z,17.55
2018-10-19T15:48:23.091Z,19.00
2018-10-19T15:50:51.357Z,19.13
2018-10-19T15:53:19.596Z,19.50
2018-10-19T15:55:47.871Z,18.53
2018-10-19T15:58:17.795Z,18.47
2018-10-19T16:00:46.423Z,18.30
2018-10-19T16:03:14.756Z,17.60
2018-10-19T16:05:42.907Z,18.23
2018-10-19T16:08:13.642Z,18.80
2018-10-19T16:10:42.426Z,18.43
2018-10-19T16:13:10.826Z,18.70
2018-10-19T16:15:39.217Z,18.60
2018-10-19T16:18:07.663Z,18.70
2018-10-19T16:20:36.097Z,19.13
2018-10-19T16:23:04.686Z,20.48
2018-10-19T16:25:33.144Z,17.67
2018-10-19T16:28:02.386Z,18.23
2018-10-19T16:30:31.269Z,19.07
2018-10-19T16:33:00.567Z,17.20
2018-10-19T16:35:28.746Z,18.30
2018-10-19T16:37:56.982Z,17.90
2018-10-19T16:40:25.220Z,18.48
2018-10-19T16:42:53.509Z,18.60
2018-10-19T16:45:21.825Z,18.53
2018-10-19T16:47:50.081Z,18.87
2018-10-19T16:50:18.311Z,18.80
2018-10-19T16:52:46.643Z,19.20
2018-10-19T16:55:19.503Z,19.10
2018-10-19T16:57:47.745Z,18.77
2018-10-19T17:00:16.024Z,19.30
2018-10-19T17:02:44.335Z,18.42
2018-10-19T17:05:12.592Z,20.13
2018-10-19T17:07:40.782Z,20.10
2018-10-19T17:10:09.302Z,18.32
2018-10-19T17:12:37.604Z,17.97
2018-10-19T17:15:06.155Z,19.97
2018-10-19T17:17:35.313Z,19.93
2018-10-19T17:20:03.825Z,20.47
2018-10-19T17:22:32.462Z,20.87
2018-10-19T17:25:02.191Z,21.77
2018-10-19T17:27:31.663Z,20.40
2018-10-19T17:30:00.883Z,20.70
2018-10-19T17:32:30.029Z,20.67
2018-10-19T17:34:58.394Z,20.13
2018-10-19T17:37:26.675Z,20.20
2018-10-19T17:39:54.855Z,20.88
2018-10-19T17:42:23.171Z,20.57
2018-10-19T17:44:51.477Z,20.37
2018-10-19T17:47:19.700Z,20.10
2018-10-19T17:49:47.941Z,22.30
2018-10-19T17:52:16.162Z,20.67
2018-10-19T17:54:44.427Z,21.35
2018-10-19T17:57:12.702Z,21.20
2018-10-19T17:59:40.881Z,21.47
2018-10-19T18:02:09.177Z,22.37
2018-10-19T18:04:37.679Z,23.47
2018-10-19T18:07:06.348Z,22.37
2018-10-19T18:09:34.968Z,23.30
2018-10-19T18:12:03.422Z,24.23
2018-10-19T18:14:33.234Z,23.50
2018-10-19T18:17:02.655Z,24.40
2018-10-19T18:19:32.216Z,22.37
2018-10-19T18:22:01.652Z,22.10
2018-10-19T18:24:30.943Z,23.73
2018-10-19T18:27:00.035Z,26.13
2018-10-19T18:29:28.294Z,24.33
2018-10-19T18:31:56.541Z,25.40
2018-10-19T18:34:24.773Z,25.80
2018-10-19T18:36:53.014Z,24.90
2018-10-19T18:39:21.288Z,25.50
2018-10-19T18:41:49.531Z,26.05
2018-10-19T18:44:17.788Z,24.57
2018-10-19T18:46:46.062Z,24.93
2018-10-19T18:49:14.279Z,25.17
2018-10-19T18:51:42.553Z,25.17
2018-10-19T18:54:10.755Z,26.07
2018-10-19T18:56:39.067Z,26.35
2018-10-19T18:59:07.613Z,27.17
2018-10-19T19:01:36.029Z,27.58
2018-10-19T19:04:04.666Z,28.23
2018-10-19T19:06:33.249Z,28.40
2018-10-19T19:09:03.295Z,28.95
2018-10-19T19:11:32.755Z,28.30
2018-10-19T19:14:01.986Z,29.13
2018-10-19T19:16:31.079Z,29.80
2018-10-19T19:19:00.091Z,28.80
2018-10-19T19:21:28.355Z,30.50
2018-10-19T19:24:02.060Z,28.63
2018-10-19T19:26:31.585Z,30.50
2018-10-19T19:29:00.909Z,30.80
2018-10-19T19:31:30.334Z,29.40
2018-10-19T19:34:04.033Z,30.37
2018-10-19T19:36:32.947Z,30.60
2018-10-19T19:39:02.101Z,30.17
2018-10-19T19:41:35.662Z,31.13
2018-10-19T19:44:04.276Z,31.17
2018-10-19T19:46:32.713Z,30.77
2018-10-19T19:49:07.412Z,31.87
2018-10-19T19:51:35.733Z,31.33
2018-10-19T19:54:04.353Z,33.78
2018-10-19T19:56:32.856Z,32.70
2018-10-19T19:59:02.823Z,32.77
2018-10-19T20:01:31.974Z,34.67
2018-10-19T20:04:01.669Z,35.77
2018-10-19T20:06:31.157Z,36.53
2018-10-19T20:08:59.382Z,37.07
2018-10-19T20:11:28.049Z,37.27
2018-10-19T20:13:56.405Z,39.20
2018-10-19T20:16:24.645Z,37.03
2018-10-19T20:18:52.862Z,37.03
2018-10-19T20:21:21.382Z,36.40
2018-10-19T20:23:49.742Z,36.87
2018-10-19T20:26:18.172Z,40.23
2018-10-19T20:28:46.302Z,38.93
2018-10-19T20:31:14.530Z,41.97
2018-10-19T20:33:42.960Z,41.48
2018-10-19T20:36:11.292Z,41.17
2018-10-19T20:38:39.747Z,40.47
2018-10-19T20:41:08.081Z,41.20
2018-10-19T20:43:36.400Z,41.43
2018-10-19T20:46:05.014Z,43.23
2018-10-19T20:48:34.145Z,42.73
2018-10-19T20:51:02.604Z,39.20
2018-10-19T20:53:31.951Z,39.35
2018-10-19T20:56:00.362Z,41.50
2018-10-19T20:58:28.614Z,41.30
2018-10-19T21:00:56.854Z,37.58
2018-10-19T21:03:25.097Z,37.77
2018-10-19T21:05:53.399Z,37.30
2018-10-19T21:08:21.817Z,39.55
2018-10-19T21:10:50.170Z,38.27
2018-10-19T21:13:18.462Z,48.05
2018-10-19T21:15:46.643Z,40.28
2018-10-19T21:18:14.862Z,37.57
2018-10-19T21:20:43.068Z,39.17
2018-10-19T21:23:11.400Z,36.42
2018-10-19T21:25:39.567Z,39.40
2018-10-19T21:28:07.866Z,39.30
2018-10-19T21:30:36.170Z,39.10
2018-10-19T21:33:05.130Z,36.40
2018-10-19T21:35:33.715Z,36.47
2018-10-19T21:38:03.479Z,37.83
2018-10-19T21:40:32.945Z,38.93
2018-10-19T21:43:02.457Z,40.07
2018-10-19T21:45:32.429Z,40.47
2018-10-19T21:48:01.256Z,38.87
2018-10-19T21:50:30.335Z,39.20
2018-10-19T21:52:58.537Z,40.03
2018-10-19T21:55:26.761Z,39.67
2018-10-19T21:57:54.986Z,39.15
2018-10-19T22:00:23.301Z,42.70
2018-10-19T22:02:51.608Z,46.25
2018-10-19T22:05:19.881Z,48.68
2018-10-19T22:07:48.139Z,50.77
2018-10-19T22:10:16.494Z,49.83
2018-10-19T22:12:44.724Z,45.23
2018-10-19T22:15:12.966Z,45.90
2018-10-19T22:17:41.256Z,47.27
2018-10-19T22:20:09.997Z,42.10
2018-10-19T22:22:38.235Z,45.10
2018-10-19T22:25:06.632Z,41.63
2018-10-19T22:27:35.027Z,42.27
2018-10-19T22:30:03.654Z,43.00
2018-10-19T22:32:35.093Z,46.10
2018-10-19T22:35:03.652Z,46.50
2018-10-19T22:37:32.500Z,46.53
2018-10-19T22:40:01.767Z,49.35
2018-10-19T22:42:30.962Z,52.03
2018-10-19T22:45:00.479Z,52.20
2018-10-19T22:47:28.713Z,51.23
2018-10-19T22:49:57.022Z,48.60
2018-10-19T22:52:25.238Z,47.78
2018-10-19T22:54:54.076Z,46.07
2018-10-19T22:57:22.475Z,44.80
2018-10-19T22:59:51.007Z,42.63
2018-10-19T23:02:19.381Z,47.17
2018-10-19T23:04:47.892Z,43.15
2018-10-19T23:07:16.253Z,42.93
2018-10-19T23:09:44.731Z,43.40
2018-10-19T23:12:13.004Z,40.67
2018-10-19T23:14:41.302Z,42.70
2018-10-19T23:17:09.600Z,44.53
2018-10-19T23:19:37.814Z,45.07
2018-10-19T23:22:08.583Z,45.48
2018-10-19T23:24:36.903Z,46.07
2018-10-19T23:27:05.780Z,47.83
2018-10-19T23:29:35.956Z,47.90
2018-10-19T23:32:08.981Z,47.47
2018-10-19T23:34:39.107Z,47.43
2018-10-19T23:37:08.692Z,43.57
2018-10-19T23:39:36.903Z,42.97
2018-10-19T23:42:05.425Z,42.53
2018-10-19T23:44:35.037Z,43.70
2018-10-19T23:47:03.836Z,39.98
2018-10-19T23:49:32.835Z,42.50
2018-10-19T23:52:02.159Z,41.28
2018-10-19T23:54:31.038Z,44.07
2018-10-19T23:57:02.494Z,46.03
2018-10-19T23:59:33.127Z,44.77
